createdAt,value
2019-05-01T00:00:52.563Z,6.03
2019-05-01T00:03:26.923Z,6.20
2019-05-01T00:06:01.281Z,5.80
2019-05-01T00:08:31.297Z,5.47
2019-05-01T00:11:01.078Z,5.43
2019-05-01T00:13:31.259Z,5.57
2019-05-01T00:16:00.701Z,6.27
2019-05-01T00:18:30.558Z,6.17
2019-05-01T00:21:01.099Z,6.47
2019-05-01T00:23:31.807Z,5.73
2019-05-01T00:26:01.277Z,5.83
2019-05-01T00:28:31.297Z,6.60
2019-05-01T00:31:00.937Z,5.57
2019-05-01T00:33:30.220Z,5.23
2019-05-01T00:36:00.018Z,6.00
2019-05-01T00:38:29.359Z,6.10
2019-05-01T00:40:59.358Z,7.17
2019-05-01T00:43:29.557Z,5.60
2019-05-01T00:45:59.197Z,6.23
2019-05-01T00:48:28.717Z,6.03
2019-05-01T00:50:57.999Z,7.33
2019-05-01T00:53:27.418Z,5.87
2019-05-01T00:56:12.258Z,6.83
2019-05-01T00:59:02.038Z,6.60
2019-05-01T01:01:40.022Z,7.60
2019-05-01T01:04:11.938Z,6.70
2019-05-01T01:06:44.578Z,7.00
2019-05-01T01:09:15.097Z,6.60
2019-05-01T01:11:45.618Z,6.87
2019-05-01T01:14:15.805Z,8.83
2019-05-01T01:16:45.458Z,7.67
2019-05-01T01:19:15.819Z,7.13
2019-05-01T01:21:49.402Z,7.37
2019-05-01T01:24:18.840Z,7.23
2019-05-01T01:26:48.460Z,8.33
2019-05-01T01:29:27.020Z,6.40
2019-05-01T01:31:56.419Z,7.67
2019-05-01T01:34:26.144Z,7.53
2019-05-01T01:37:39.918Z,9.23
2019-05-01T01:40:09.878Z,7.37
2019-05-01T01:42:40.373Z,7.60
2019-05-01T01:45:24.758Z,7.57
2019-05-01T01:48:10.909Z,7.80
2019-05-01T01:50:43.083Z,8.27
2019-05-01T01:53:18.701Z,7.17
2019-05-01T01:55:52.623Z,7.90
2019-05-01T01:58:23.898Z,7.60
2019-05-01T02:01:09.632Z,8.23
2019-05-01T02:03:56.571Z,7.87
2019-05-01T02:06:26.139Z,8.73
2019-05-01T02:08:56.873Z,7.87
2019-05-01T02:11:27.017Z,8.53
2019-05-01T02:13:56.997Z,7.77
2019-05-01T02:16:27.158Z,8.03
2019-05-01T02:18:56.160Z,8.87
2019-05-01T02:21:25.738Z,10.00
2019-05-01T02:23:55.358Z,9.77
2019-05-01T02:26:27.840Z,8.20
2019-05-01T02:29:02.620Z,8.27
2019-05-01T02:34:13.039Z,9.37
2019-05-01T02:36:43.798Z,9.13
2019-05-01T02:39:20.140Z,10.93
2019-05-01T02:41:52.918Z,9.80
2019-05-01T02:44:30.918Z,8.57
2019-05-01T02:47:02.999Z,8.20
2019-05-01T02:49:38.239Z,10.67
2019-05-01T02:52:10.319Z,8.80
2019-05-01T02:54:42.339Z,9.00
2019-05-01T02:57:15.139Z,10.67
2019-05-01T02:59:46.865Z,10.90
2019-05-01T03:02:18.565Z,11.17
2019-05-01T03:04:49.578Z,8.63
2019-05-01T03:07:19.662Z,10.37
2019-05-01T03:09:50.183Z,9.23
2019-05-01T03:12:22.500Z,8.63
2019-05-01T03:14:54.759Z,8.67
2019-05-01T03:17:47.503Z,8.77
2019-05-01T03:20:23.187Z,8.77
2019-05-01T03:23:13.960Z,10.10
2019-05-01T03:25:47.239Z,9.93
2019-05-01T03:28:16.560Z,12.23
2019-05-01T03:30:48.822Z,9.50
2019-05-01T03:33:19.420Z,11.10
2019-05-01T03:35:49.718Z,9.23
2019-05-01T03:38:19.298Z,11.97
2019-05-01T03:40:49.517Z,10.10
2019-05-01T03:43:19.020Z,9.93
2019-05-01T03:45:49.157Z,9.57
2019-05-01T03:48:19.386Z,9.60
2019-05-01T03:50:50.679Z,10.37
2019-05-01T03:53:20.865Z,9.23
2019-05-01T03:55:50.306Z,10.63
2019-05-01T03:58:23.161Z,11.03
2019-05-01T04:01:11.042Z,11.17
2019-05-01T04:03:43.722Z,11.30
2019-05-01T04:06:13.320Z,10.50
2019-05-01T04:08:43.558Z,10.43
2019-05-01T04:11:13.262Z,10.37
2019-05-01T04:13:42.918Z,9.73
2019-05-01T04:16:12.798Z,11.27
2019-05-01T04:18:42.948Z,9.07
2019-05-01T04:21:12.922Z,9.43
2019-05-01T04:23:46.700Z,8.90
2019-05-01T04:26:16.424Z,11.23
2019-05-01T04:28:54.060Z,12.80
2019-05-01T04:31:25.157Z,10.80
2019-05-01T04:33:59.658Z,10.60
2019-05-01T04:36:33.938Z,10.70
2019-05-01T04:39:05.578Z,10.30
2019-05-01T04:41:36.285Z,12.73
2019-05-01T04:44:06.461Z,10.60
2019-05-01T04:46:36.438Z,9.20
2019-05-01T04:49:06.218Z,10.30
2019-05-01T04:51:36.900Z,12.17
2019-05-01T04:54:06.737Z,12.43
2019-05-01T04:56:36.258Z,8.73
2019-05-01T04:59:08.298Z,10.60
2019-05-01T05:01:57.567Z,9.10
2019-05-01T05:04:28.458Z,9.40
2019-05-01T05:06:58.517Z,9.20
2019-05-01T05:09:43.740Z,9.03
2019-05-01T05:12:24.305Z,9.97
2019-05-01T05:14:55.398Z,11.40
2019-05-01T05:17:27.821Z,9.13
2019-05-01T05:19:57.599Z,10.37
2019-05-01T05:22:27.500Z,9.77
2019-05-01T05:24:57.620Z,10.87
2019-05-01T05:27:29.879Z,9.80
2019-05-01T05:30:01.100Z,9.50
2019-05-01T05:32:32.897Z,9.50
2019-05-01T05:35:06.401Z,9.00
2019-05-01T05:37:57.638Z,10.30
2019-05-01T05:40:30.338Z,9.53
2019-05-01T05:43:00.239Z,9.30
2019-05-01T05:45:29.757Z,9.73
2019-05-01T05:48:00.037Z,10.77
2019-05-01T05:50:40.118Z,10.63
2019-05-01T05:53:13.578Z,9.40
2019-05-01T05:55:54.038Z,8.53
2019-05-01T05:58:27.398Z,10.70
2019-05-01T06:01:18.107Z,9.87
2019-05-01T06:04:07.918Z,9.53
2019-05-01T06:06:47.658Z,8.93
2019-05-01T06:09:20.278Z,9.20
2019-05-01T06:12:10.745Z,10.17
2019-05-01T06:15:02.426Z,9.97
2019-05-01T06:17:32.703Z,9.37
2019-05-01T06:20:03.603Z,9.73
2019-05-01T06:22:40.751Z,9.80
2019-05-01T06:25:22.820Z,11.17
2019-05-01T06:27:49.272Z,10.00
2019-05-01T06:30:18.797Z,9.30
2019-05-01T06:32:48.918Z,9.23
2019-05-01T06:35:18.560Z,9.60
2019-05-01T06:37:55.910Z,9.47
2019-05-01T06:40:42.457Z,10.13
2019-05-01T06:43:27.072Z,10.23
2019-05-01T06:46:17.460Z,9.37
2019-05-01T06:49:07.113Z,9.23
2019-05-01T06:51:42.799Z,9.67
2019-05-01T06:54:16.442Z,9.90
2019-05-01T06:56:46.103Z,9.03
2019-05-01T06:59:17.300Z,10.03
2019-05-01T07:01:47.783Z,9.20
2019-05-01T07:04:17.298Z,8.40
2019-05-01T07:06:46.998Z,9.60
2019-05-01T07:09:27.322Z,9.00
2019-05-01T07:11:52.609Z,9.93
2019-05-01T07:14:19.451Z,10.23
2019-05-01T07:16:48.852Z,8.40
2019-05-01T07:19:19.937Z,8.00
2019-05-01T07:21:50.318Z,9.40
2019-05-01T07:24:24.096Z,7.20
2019-05-01T07:26:50.858Z,6.90
2019-05-01T07:29:27.758Z,7.07
2019-05-01T07:31:57.219Z,8.13
2019-05-01T07:34:30.859Z,6.17
2019-05-01T07:37:02.878Z,9.90
2019-05-01T07:39:33.384Z,5.70
2019-05-01T07:42:24.603Z,6.73
2019-05-01T07:44:57.957Z,5.60
2019-05-01T07:47:46.500Z,6.87
2019-05-01T07:50:19.543Z,6.07
2019-05-01T07:52:53.837Z,8.17
2019-05-01T07:55:42.350Z,6.87
2019-05-01T07:58:15.783Z,7.03
2019-05-01T08:00:51.803Z,6.37
2019-05-01T08:03:26.424Z,5.60
2019-05-01T08:05:56.823Z,6.00
2019-05-01T08:08:29.106Z,5.70
2019-05-01T08:11:05.361Z,5.77
2019-05-01T08:13:35.049Z,6.27
2019-05-01T08:16:07.139Z,6.90
2019-05-01T08:18:36.923Z,7.77
2019-05-01T08:21:10.937Z,5.73
2019-05-01T08:23:42.660Z,6.40
2019-05-01T08:26:16.851Z,6.47
2019-05-01T08:29:08.155Z,5.57
2019-05-01T08:31:43.498Z,6.03
2019-05-01T08:34:20.618Z,5.97
2019-05-01T08:36:53.238Z,8.37
2019-05-01T08:39:23.439Z,5.30
2019-05-01T08:41:54.144Z,6.23
2019-05-01T08:44:29.580Z,5.70
2019-05-01T08:46:59.273Z,4.87
2019-05-01T08:49:37.300Z,5.90
2019-05-01T08:52:12.544Z,5.57
2019-05-01T08:54:39.478Z,8.47
2019-05-01T08:57:09.879Z,4.87
2019-05-01T08:59:40.759Z,6.87
2019-05-01T09:02:14.382Z,6.87
2019-05-01T09:04:45.022Z,6.07
2019-05-01T09:07:19.185Z,6.67
2019-05-01T09:09:48.498Z,6.10
2019-05-01T09:12:18.380Z,4.43
2019-05-01T09:14:50.983Z,5.83
2019-05-01T09:17:20.477Z,4.90
2019-05-01T09:19:51.897Z,6.43
2019-05-01T09:22:22.757Z,5.67
2019-05-01T09:25:00.050Z,4.40
2019-05-01T09:27:36.598Z,5.47
2019-05-01T09:30:16.580Z,5.97
2019-05-01T09:32:53.898Z,4.83
2019-05-01T09:35:19.817Z,4.30
2019-05-01T09:37:51.177Z,4.77
2019-05-01T09:40:21.980Z,6.00
2019-05-01T09:42:54.709Z,6.90
2019-05-01T09:45:23.858Z,4.83
2019-05-01T09:47:53.502Z,5.13
2019-05-01T09:50:30.185Z,4.93
2019-05-01T09:53:15.041Z,4.67
2019-05-01T09:55:50.298Z,4.40
2019-05-01T09:58:33.078Z,5.13
2019-05-01T10:01:03.293Z,4.27
2019-05-01T10:03:34.665Z,4.97
2019-05-01T10:06:05.404Z,5.67
2019-05-01T10:08:40.048Z,4.50
2019-05-01T10:11:09.394Z,4.00
2019-05-01T10:13:41.025Z,5.00
2019-05-01T10:16:12.606Z,4.87
2019-05-01T10:18:43.158Z,4.73
2019-05-01T10:21:13.566Z,5.20
2019-05-01T10:23:47.161Z,4.47
2019-05-01T10:26:18.998Z,4.93
2019-05-01T10:28:58.567Z,4.33
2019-05-01T10:31:48.335Z,4.90
2019-05-01T10:34:38.687Z,4.57
2019-05-01T10:37:12.005Z,4.60
2019-05-01T10:39:43.014Z,5.43
2019-05-01T10:42:14.004Z,5.57
2019-05-01T10:44:50.567Z,4.73
2019-05-01T10:47:25.588Z,4.50
2019-05-01T10:49:54.226Z,4.33
2019-05-01T10:52:26.228Z,4.23
2019-05-01T10:54:56.207Z,4.13
2019-05-01T10:57:26.066Z,4.47
2019-05-01T10:59:55.266Z,4.37
2019-05-01T11:02:24.603Z,4.27
2019-05-01T11:04:54.365Z,5.97
2019-05-01T11:07:23.885Z,4.23
2019-05-01T11:09:53.331Z,4.13
2019-05-01T11:12:22.984Z,5.37
2019-05-01T11:14:52.445Z,4.50
2019-05-01T11:17:22.085Z,4.57
2019-05-01T11:19:51.703Z,5.63
2019-05-01T11:22:21.163Z,4.13
2019-05-01T11:24:54.459Z,4.77
2019-05-01T11:27:23.678Z,4.07
2019-05-01T11:29:53.560Z,4.83
2019-05-01T11:32:24.560Z,4.03
2019-05-01T11:35:06.598Z,4.53
2019-05-01T11:37:44.118Z,5.60
2019-05-01T11:40:24.600Z,6.07
2019-05-01T11:42:54.980Z,4.33
2019-05-01T11:45:24.158Z,5.17
2019-05-01T11:47:54.498Z,5.43
2019-05-01T11:50:25.558Z,5.10
2019-05-01T11:52:56.968Z,4.10
2019-05-01T11:55:27.757Z,5.53
2019-05-01T11:58:00.078Z,4.77
2019-05-01T12:00:32.950Z,6.23
2019-05-01T12:03:06.421Z,5.83
2019-05-01T12:05:36.361Z,5.63
2019-05-01T12:08:06.709Z,6.10
2019-05-01T12:10:39.020Z,6.47
2019-05-01T12:13:10.906Z,4.90
2019-05-01T12:15:42.364Z,6.03
2019-05-01T12:18:14.119Z,8.17
2019-05-01T12:20:43.326Z,5.27
2019-05-01T12:23:13.039Z,6.13
2019-05-01T12:25:44.902Z,5.77
2019-05-01T12:28:14.239Z,6.40
2019-05-01T12:30:43.806Z,6.53
2019-05-01T12:33:13.139Z,6.97
2019-05-01T12:35:44.259Z,4.57
2019-05-01T12:38:14.040Z,5.27
2019-05-01T12:40:45.260Z,6.33
2019-05-01T12:43:14.900Z,7.87
2019-05-01T12:45:46.058Z,5.83
2019-05-01T12:48:15.639Z,8.40
2019-05-01T12:50:51.519Z,6.43
2019-05-01T12:53:22.718Z,6.17
2019-05-01T12:56:08.838Z,6.63
2019-05-01T12:58:38.677Z,6.47
2019-05-01T13:01:08.100Z,6.77
2019-05-01T13:03:37.242Z,8.33
2019-05-01T13:06:06.859Z,5.77
2019-05-01T13:08:36.301Z,6.83
2019-05-01T13:11:16.388Z,7.97
2019-05-01T13:13:45.641Z,7.20
2019-05-01T13:16:15.959Z,7.10
2019-05-01T13:18:45.440Z,5.87
2019-05-01T13:21:15.384Z,6.57
2019-05-01T13:23:44.580Z,6.40
2019-05-01T13:26:24.941Z,7.50
2019-05-01T13:28:55.960Z,6.73
2019-05-01T13:31:29.780Z,6.00
2019-05-01T13:33:59.159Z,8.67
2019-05-01T13:36:29.081Z,8.07
2019-05-01T13:38:58.461Z,7.50
2019-05-01T13:41:28.504Z,8.33
2019-05-01T13:43:57.720Z,10.60
2019-05-01T13:46:27.161Z,5.57
2019-05-01T13:49:04.390Z,5.93
2019-05-01T13:51:33.800Z,5.57
2019-05-01T13:54:03.159Z,5.83
2019-05-01T13:56:32.578Z,5.90
2019-05-01T13:59:02.257Z,7.63
2019-05-01T14:01:31.507Z,8.23
2019-05-01T14:04:00.948Z,6.83
2019-05-01T14:06:36.378Z,6.40
2019-05-01T14:09:09.065Z,5.73
2019-05-01T14:11:38.737Z,7.17
2019-05-01T14:14:08.460Z,8.53
2019-05-01T14:16:38.081Z,9.33
2019-05-01T14:19:07.878Z,5.63
2019-05-01T14:21:38.827Z,10.53
2019-05-01T14:24:26.857Z,6.00
2019-05-01T14:26:56.198Z,4.00
2019-05-01T14:29:25.398Z,5.03
2019-05-01T14:31:56.197Z,4.97
2019-05-01T14:34:26.255Z,4.03
2019-05-01T14:36:55.398Z,6.13
2019-05-01T14:39:25.437Z,5.67
2019-05-01T14:41:59.718Z,4.80
2019-05-01T14:44:36.878Z,4.50
2019-05-01T14:47:02.298Z,5.13
2019-05-01T14:49:33.118Z,5.53
2019-05-01T14:52:04.738Z,5.53
2019-05-01T14:54:35.277Z,5.10
2019-05-01T14:57:07.199Z,6.70
2019-05-01T14:59:40.178Z,4.37
2019-05-01T15:02:11.842Z,5.07
2019-05-01T15:04:41.884Z,8.73
2019-05-01T15:07:13.183Z,5.63
2019-05-01T15:09:43.603Z,5.70
2019-05-01T15:12:13.763Z,6.73
2019-05-01T15:14:47.263Z,5.37
2019-05-01T15:17:20.923Z,5.33
2019-05-01T15:19:56.162Z,5.93
2019-05-01T15:22:27.503Z,7.57
2019-05-01T15:24:58.924Z,5.43
2019-05-01T15:27:30.243Z,6.03
2019-05-01T15:30:01.613Z,4.87
2019-05-01T15:32:31.702Z,5.63
2019-05-01T15:35:03.843Z,5.70
2019-05-01T15:37:35.869Z,5.60
2019-05-01T15:40:10.543Z,5.13
2019-05-01T15:42:46.203Z,8.00
2019-05-01T15:45:17.818Z,5.23
2019-05-01T15:47:49.800Z,5.27
2019-05-01T15:50:20.678Z,5.53
2019-05-01T15:52:54.758Z,5.57
2019-05-01T15:55:24.620Z,6.50
2019-05-01T15:57:58.657Z,5.57
2019-05-01T16:00:29.538Z,5.20
2019-05-01T16:02:58.918Z,4.87
2019-05-01T16:05:31.642Z,5.23
2019-05-01T16:08:09.373Z,4.90
2019-05-01T16:10:34.339Z,4.63
2019-05-01T16:13:05.978Z,6.57
2019-05-01T16:15:36.059Z,6.37
2019-05-01T16:18:08.618Z,5.77
2019-05-01T16:20:39.399Z,7.07
2019-05-01T16:23:09.098Z,5.83
2019-05-01T16:25:39.779Z,8.40
2019-05-01T16:28:09.127Z,5.53
2019-05-01T16:30:39.038Z,6.37
2019-05-01T16:33:08.398Z,5.57
2019-05-01T16:35:43.978Z,6.03
2019-05-01T16:38:22.825Z,7.43
2019-05-01T16:40:54.057Z,6.00
2019-05-01T16:43:23.438Z,6.13
2019-05-01T16:45:52.918Z,6.00
2019-05-01T16:48:22.897Z,6.73
2019-05-01T16:50:52.497Z,6.67
2019-05-01T16:53:21.978Z,7.83
2019-05-01T16:55:51.938Z,5.67
2019-05-01T16:58:22.958Z,5.67
2019-05-01T17:01:02.825Z,5.80
2019-05-01T17:03:50.684Z,6.37
2019-05-01T17:06:24.941Z,5.07
2019-05-01T17:09:01.746Z,5.13
2019-05-01T17:11:33.039Z,8.97
2019-05-01T17:14:03.419Z,5.47
2019-05-01T17:16:33.381Z,5.00
2019-05-01T17:19:03.319Z,5.63
2019-05-01T17:21:33.398Z,5.80
2019-05-01T17:24:02.819Z,6.17
2019-05-01T17:26:32.280Z,5.30
2019-05-01T17:29:01.938Z,5.93
2019-05-01T17:31:31.499Z,4.63
2019-05-01T17:34:03.098Z,9.93
2019-05-01T17:36:32.919Z,6.07
2019-05-01T17:39:02.465Z,6.27
2019-05-01T17:41:32.121Z,5.50
2019-05-01T17:44:01.559Z,5.87
2019-05-01T17:46:31.098Z,6.13
2019-05-01T17:49:04.307Z,6.63
2019-05-01T17:51:31.859Z,4.97
2019-05-01T17:54:01.242Z,5.13
2019-05-01T17:56:31.662Z,5.03
2019-05-01T17:59:00.799Z,5.53
2019-05-01T18:01:49.883Z,6.20
2019-05-01T18:04:20.998Z,5.40
2019-05-01T18:06:52.279Z,6.10
2019-05-01T18:09:21.659Z,6.97
2019-05-01T18:11:52.323Z,6.30
2019-05-01T18:14:21.978Z,6.87
2019-05-01T18:16:52.138Z,5.60
2019-05-01T18:19:21.880Z,6.07
2019-05-01T18:21:53.657Z,5.90
2019-05-01T18:24:32.480Z,5.20
2019-05-01T18:27:07.260Z,6.70
2019-05-01T18:29:51.274Z,5.17
2019-05-01T18:32:22.720Z,5.77
2019-05-01T18:34:52.659Z,6.03
2019-05-01T18:37:31.111Z,7.07
2019-05-01T18:39:58.319Z,5.87
2019-05-01T18:42:29.592Z,8.00
2019-05-01T18:45:00.059Z,5.90
2019-05-01T18:47:31.842Z,5.30
2019-05-01T18:50:05.263Z,5.60
2019-05-01T18:52:36.060Z,6.33
2019-05-01T18:55:06.818Z,5.60
2019-05-01T18:57:37.799Z,6.80
2019-05-01T19:00:08.953Z,6.93
2019-05-01T19:02:39.983Z,8.10
2019-05-01T19:05:10.709Z,6.13
2019-05-01T19:07:43.140Z,6.60
2019-05-01T19:10:13.620Z,6.87
2019-05-01T19:12:44.530Z,7.87
2019-05-01T19:15:14.705Z,6.10
2019-05-01T19:17:46.736Z,7.97
2019-05-01T19:20:16.258Z,8.07
2019-05-01T19:22:46.011Z,9.13
2019-05-01T19:25:17.879Z,6.53
2019-05-01T19:27:56.110Z,5.57
2019-05-01T19:30:28.858Z,7.33
2019-05-01T19:32:58.828Z,5.97
2019-05-01T19:35:29.659Z,6.60
2019-05-01T19:37:59.246Z,6.20
2019-05-01T19:40:30.757Z,6.83
2019-05-01T19:43:06.165Z,8.13
2019-05-01T19:45:35.950Z,5.77
2019-05-01T19:48:06.493Z,7.07
2019-05-01T19:50:40.008Z,6.03
2019-05-01T19:53:10.048Z,5.20
2019-05-01T19:55:39.992Z,8.10
2019-05-01T19:58:09.268Z,5.77
2019-05-01T20:00:54.485Z,7.37
2019-05-01T20:03:24.126Z,5.70
2019-05-01T20:06:10.610Z,7.17
2019-05-01T20:08:40.147Z,7.83
2019-05-01T20:11:09.950Z,6.43
2019-05-01T20:13:39.847Z,6.60
2019-05-01T20:16:10.145Z,5.43
2019-05-01T20:18:39.925Z,6.23
2019-05-01T20:21:09.709Z,7.13
2019-05-01T20:23:39.284Z,5.80
2019-05-01T20:26:12.114Z,6.03
2019-05-01T20:28:41.506Z,7.70
2019-05-01T20:31:11.152Z,7.40
2019-05-01T20:33:44.170Z,5.37
2019-05-01T20:36:11.595Z,5.10
2019-05-01T20:38:42.025Z,7.13
2019-05-01T20:41:15.815Z,6.23
2019-05-01T20:43:43.538Z,5.60
2019-05-01T20:46:13.847Z,5.20
2019-05-01T20:48:43.804Z,5.83
2019-05-01T20:51:14.627Z,6.77
2019-05-01T20:53:43.933Z,6.13
2019-05-01T20:56:21.016Z,7.20
2019-05-01T20:58:51.050Z,5.30
2019-05-01T21:01:28.155Z,7.20
2019-05-01T21:04:13.174Z,6.20
2019-05-01T21:06:45.669Z,7.50
2019-05-01T21:09:16.909Z,6.43
2019-05-01T21:12:04.691Z,6.00
2019-05-01T21:14:24.746Z,7.40
2019-05-01T21:16:54.104Z,5.37
2019-05-01T21:19:25.596Z,5.23
2019-05-01T21:21:54.505Z,6.00
2019-05-01T21:24:24.012Z,6.27
2019-05-01T21:26:53.632Z,5.37
2019-05-01T21:29:24.085Z,8.43
2019-05-01T21:31:54.270Z,5.50
2019-05-01T21:34:24.399Z,5.60
2019-05-01T21:36:54.121Z,6.67
2019-05-01T21:39:26.400Z,7.80
2019-05-01T21:42:04.699Z,6.17
2019-05-01T21:44:33.340Z,5.57
2019-05-01T21:47:03.928Z,7.53
2019-05-01T21:49:34.386Z,6.77
2019-05-01T21:52:07.417Z,5.80
2019-05-01T21:54:37.047Z,7.13
2019-05-01T21:57:06.783Z,7.20
2019-05-01T21:59:44.758Z,5.90
2019-05-01T22:02:14.466Z,5.73
2019-05-01T22:04:44.143Z,4.80
2019-05-01T22:07:13.910Z,5.97
2019-05-01T22:09:45.767Z,11.37
2019-05-01T22:12:14.926Z,6.00
2019-05-01T22:14:52.244Z,6.87
2019-05-01T22:17:27.409Z,5.50
2019-05-01T22:19:57.383Z,7.07
2019-05-01T22:22:38.866Z,5.97
2019-05-01T22:25:26.741Z,7.97
2019-05-01T22:28:00.608Z,6.33
2019-05-01T22:30:35.287Z,7.07
2019-05-01T22:33:06.124Z,7.03
2019-05-01T22:35:40.473Z,7.83
2019-05-01T22:38:11.184Z,8.70
2019-05-01T22:40:46.324Z,6.13
2019-05-01T22:43:15.944Z,7.10
2019-05-01T22:45:45.803Z,7.90
2019-05-01T22:48:15.927Z,8.20
2019-05-01T22:50:50.263Z,6.33
2019-05-01T22:53:20.028Z,6.50
2019-05-01T22:55:49.783Z,7.63
2019-05-01T22:58:21.123Z,6.70
2019-05-01T23:00:53.765Z,6.00
2019-05-01T23:03:31.503Z,7.27
2019-05-01T23:06:01.965Z,7.77
2019-05-01T23:08:32.603Z,7.03
2019-05-01T23:11:02.067Z,6.87
2019-05-01T23:13:32.323Z,7.23
2019-05-01T23:16:02.304Z,6.00
2019-05-01T23:18:32.283Z,6.53
2019-05-01T23:21:02.905Z,6.80
2019-05-01T23:23:32.463Z,6.90
2019-05-01T23:26:11.592Z,6.97
2019-05-01T23:28:41.019Z,7.53
2019-05-01T23:31:15.824Z,6.87
2019-05-01T23:33:50.687Z,7.40
2019-05-01T23:36:23.611Z,7.80
2019-05-01T23:38:50.404Z,10.10
2019-05-01T23:41:44.567Z,9.40
2019-05-01T23:43:58.170Z,7.13
2019-05-01T23:46:34.250Z,10.00
2019-05-01T23:49:04.913Z,7.37
2019-05-01T23:51:37.548Z,9.30
2019-05-01T23:54:09.944Z,8.87
2019-05-01T23:56:39.264Z,7.57
2019-05-01T23:59:12.604Z,7.20
